Terminal Aerodrome Forecast
Issued by NWS Pueblo, CO

Home | Current Version | Previous Version | Text Only | Print | Product List | Glossary On
Versions: 1 2 3 4 5 6 7 8 9 10 11 12 13 14 15 16 17 18 19 20 21 22 23 24 25
000
FTUS45 KPUB 231727
TAFCOS
TAF
KCOS 231727Z 2318/2418 13010KT P6SM VCSH SCT025 OVC060
      TEMPO 2321/2401 -TSRA BKN020CB
     FM240500 36015KT P6SM VCSH SCT020 BKN040
     FM240800 35009KT P6SM SCT040 BKN100
     FM241200 36011KT P6SM SCT100
     FM241700 13010KT P6SM SCT100=

USA.gov is the U.S. government's official web portal to all federal, state and local government web resources and services.